createdAt,value
2023-08-21T00:00:31.000Z,25.70
2023-08-21T00:01:31.000Z,25.75
2023-08-21T00:02:31.000Z,25.69
2023-08-21T00:03:31.000Z,25.62
2023-08-21T00:04:31.000Z,25.65
2023-08-21T00:05:30.000Z,25.65
2023-08-21T00:06:31.000Z,25.64
2023-08-21T00:07:31.000Z,25.64
2023-08-21T00:08:31.000Z,25.64
2023-08-21T00:09:31.000Z,25.62
2023-08-21T00:10:32.000Z,25.63
2023-08-21T00:11:31.000Z,25.61
2023-08-21T00:12:30.000Z,25.63
2023-08-21T00:13:31.000Z,25.62
2023-08-21T00:14:31.000Z,25.64
2023-08-21T00:15:30.000Z,25.64
2023-08-21T00:16:30.000Z,25.65
2023-08-21T00:17:30.000Z,25.65
2023-08-21T00:18:31.000Z,25.66
2023-08-21T00:19:32.000Z,25.64
2023-08-21T00:20:31.000Z,25.64
2023-08-21T00:21:30.000Z,25.62
2023-08-21T00:22:31.000Z,25.60
2023-08-21T00:23:31.000Z,25.60
2023-08-21T00:24:31.000Z,25.60
2023-08-21T00:25:30.000Z,25.59
2023-08-21T00:26:31.000Z,25.60
2023-08-21T00:27:31.000Z,25.59
2023-08-21T00:28:32.000Z,25.57
2023-08-21T00:29:30.000Z,25.55
2023-08-21T00:30:31.000Z,25.54
2023-08-21T00:31:31.000Z,25.52
2023-08-21T00:32:31.000Z,25.52
2023-08-21T00:33:31.000Z,25.50
2023-08-21T00:34:31.000Z,25.49
2023-08-21T00:35:31.000Z,25.47
2023-08-21T00:36:31.000Z,25.46
2023-08-21T00:37:31.000Z,25.41
2023-08-21T00:38:31.000Z,25.40
2023-08-21T00:39:31.000Z,25.39
2023-08-21T00:40:31.000Z,25.39
2023-08-21T00:41:34.000Z,25.38
2023-08-21T00:42:31.000Z,25.40
2023-08-21T00:43:31.000Z,25.42
2023-08-21T00:44:31.000Z,25.39
2023-08-21T00:45:31.000Z,25.38
2023-08-21T00:46:31.000Z,25.36
2023-08-21T00:47:31.000Z,25.34
2023-08-21T00:48:31.000Z,25.34
2023-08-21T00:49:31.000Z,25.34
2023-08-21T00:50:31.000Z,25.34
2023-08-21T00:51:31.000Z,25.30
2023-08-21T00:52:31.000Z,25.32
2023-08-21T00:53:31.000Z,25.29
2023-08-21T00:54:31.000Z,25.27
2023-08-21T00:55:31.000Z,25.23
2023-08-21T00:56:31.000Z,25.22
2023-08-21T00:57:31.000Z,25.18
2023-08-21T00:58:31.000Z,25.16
2023-08-21T00:59:31.000Z,25.15
2023-08-21T01:00:32.000Z,25.15
2023-08-21T01:01:32.000Z,25.12
2023-08-21T01:02:31.000Z,25.11
2023-08-21T01:03:31.000Z,25.13
2023-08-21T01:04:31.000Z,25.12
2023-08-21T01:05:31.000Z,25.13
2023-08-21T01:06:31.000Z,25.11
2023-08-21T01:07:42.000Z,25.11
2023-08-21T01:08:41.000Z,25.11
2023-08-21T01:09:39.000Z,25.10
2023-08-21T01:10:41.000Z,25.10
2023-08-21T01:11:40.000Z,25.09
2023-08-21T01:12:40.000Z,25.09
2023-08-21T01:13:47.000Z,25.07
2023-08-21T01:14:43.000Z,25.10
2023-08-21T01:15:31.000Z,25.09
2023-08-21T01:16:32.000Z,25.06
2023-08-21T01:17:33.000Z,25.06
2023-08-21T01:18:33.000Z,25.06
2023-08-21T01:19:39.000Z,25.05
2023-08-21T01:20:31.000Z,25.04
2023-08-21T01:21:31.000Z,25.04
2023-08-21T01:22:37.000Z,25.05
2023-08-21T01:23:35.000Z,25.03
2023-08-21T01:24:30.000Z,25.01
2023-08-21T01:25:31.000Z,24.98
2023-08-21T01:26:30.000Z,24.99
2023-08-21T01:27:32.000Z,24.99
2023-08-21T01:28:33.000Z,24.98
2023-08-21T01:29:32.000Z,24.97
2023-08-21T01:30:32.000Z,24.98
2023-08-21T01:31:34.000Z,24.98
2023-08-21T01:32:54.000Z,24.97
2023-08-21T01:33:34.000Z,24.96
2023-08-21T01:34:34.000Z,24.93
2023-08-21T01:35:33.000Z,24.91
2023-08-21T01:36:31.000Z,24.92
2023-08-21T01:37:30.000Z,24.93
2023-08-21T01:38:32.000Z,24.92
2023-08-21T01:39:30.000Z,24.91
2023-08-21T01:40:30.000Z,24.90
2023-08-21T01:41:30.000Z,24.90
2023-08-21T01:42:30.000Z,24.88
2023-08-21T01:43:30.000Z,24.87
2023-08-21T01:44:30.000Z,24.87
2023-08-21T01:45:30.000Z,24.87
2023-08-21T01:46:30.000Z,24.86
2023-08-21T01:47:30.000Z,24.86
2023-08-21T01:48:30.000Z,24.85
2023-08-21T01:49:30.000Z,24.83
2023-08-21T01:50:30.000Z,24.81
2023-08-21T01:51:30.000Z,24.80
2023-08-21T01:52:30.000Z,24.80
2023-08-21T01:53:30.000Z,24.80
2023-08-21T01:54:30.000Z,24.83
2023-08-21T01:55:30.000Z,24.81
2023-08-21T01:56:30.000Z,24.80
2023-08-21T01:57:30.000Z,24.79
2023-08-21T01:58:30.000Z,24.76
2023-08-21T01:59:30.000Z,24.77
2023-08-21T02:00:30.000Z,24.74
2023-08-21T02:01:30.000Z,24.74
2023-08-21T02:02:30.000Z,24.73
2023-08-21T02:03:30.000Z,24.69
2023-08-21T02:04:30.000Z,24.69
2023-08-21T02:05:36.000Z,24.68
2023-08-21T02:06:30.000Z,24.67
2023-08-21T02:07:30.000Z,24.67
2023-08-21T02:08:32.000Z,24.64
2023-08-21T02:09:30.000Z,24.63
2023-08-21T02:10:30.000Z,24.63
2023-08-21T02:11:30.000Z,24.63
2023-08-21T02:12:30.000Z,24.63
2023-08-21T02:13:32.000Z,24.62
2023-08-21T02:14:30.000Z,24.62
2023-08-21T02:15:30.000Z,24.58
2023-08-21T02:16:31.000Z,24.57
2023-08-21T02:17:31.000Z,24.56
2023-08-21T02:18:30.000Z,24.56
2023-08-21T02:19:30.000Z,24.54
2023-08-21T02:20:30.000Z,24.53
2023-08-21T02:21:31.000Z,24.52
2023-08-21T02:22:30.000Z,24.51
2023-08-21T02:23:30.000Z,24.50
2023-08-21T02:24:30.000Z,24.49
2023-08-21T02:25:31.000Z,24.49
2023-08-21T02:26:30.000Z,24.48
2023-08-21T02:27:30.000Z,24.46
2023-08-21T02:28:30.000Z,24.43
2023-08-21T02:29:30.000Z,24.42
2023-08-21T02:30:30.000Z,24.39
2023-08-21T02:31:30.000Z,24.39
2023-08-21T02:32:30.000Z,24.38
2023-08-21T02:33:30.000Z,24.38
2023-08-21T02:34:30.000Z,24.38
2023-08-21T02:35:30.000Z,24.38
2023-08-21T02:36:30.000Z,24.36
2023-08-21T02:37:31.000Z,24.36
2023-08-21T02:38:30.000Z,24.34
2023-08-21T02:39:30.000Z,24.35
2023-08-21T02:40:31.000Z,24.35
2023-08-21T02:41:30.000Z,24.36
2023-08-21T02:42:30.000Z,24.36
2023-08-21T02:43:30.000Z,24.35
2023-08-21T02:44:30.000Z,24.36
2023-08-21T02:45:30.000Z,24.34
2023-08-21T02:46:31.000Z,24.30
2023-08-21T02:47:30.000Z,24.28
2023-08-21T02:48:30.000Z,24.28
2023-08-21T02:49:30.000Z,24.28
2023-08-21T02:50:31.000Z,24.28
2023-08-21T02:51:30.000Z,24.28
2023-08-21T02:52:32.000Z,24.27
2023-08-21T02:53:30.000Z,24.24
2023-08-21T02:54:30.000Z,24.26
2023-08-21T02:55:31.000Z,24.23
2023-08-21T02:56:31.000Z,24.24
2023-08-21T02:57:31.000Z,24.23
2023-08-21T02:58:30.000Z,24.22
2023-08-21T02:59:30.000Z,24.20
2023-08-21T03:00:30.000Z,24.21
2023-08-21T03:01:31.000Z,24.18
2023-08-21T03:02:31.000Z,24.16
2023-08-21T03:03:32.000Z,24.16
2023-08-21T03:04:30.000Z,24.15
2023-08-21T03:05:30.000Z,24.14
2023-08-21T03:06:30.000Z,24.11
2023-08-21T03:07:31.000Z,24.10
2023-08-21T03:08:31.000Z,24.08
2023-08-21T03:09:30.000Z,24.07
2023-08-21T03:10:33.000Z,24.09
2023-08-21T03:11:30.000Z,24.06
2023-08-21T03:12:31.000Z,24.09
2023-08-21T03:13:30.000Z,24.06
2023-08-21T03:14:30.000Z,24.08
2023-08-21T03:15:30.000Z,24.08
2023-08-21T03:16:30.000Z,24.05
2023-08-21T03:17:30.000Z,24.05
2023-08-21T03:18:31.000Z,24.05
2023-08-21T03:19:31.000Z,24.07
2023-08-21T03:20:30.000Z,24.04
2023-08-21T03:21:31.000Z,24.04
2023-08-21T03:22:31.000Z,24.05
2023-08-21T03:23:30.000Z,24.05
2023-08-21T03:24:30.000Z,24.04
2023-08-21T03:25:30.000Z,24.07
2023-08-21T03:26:31.000Z,24.04
2023-08-21T03:27:30.000Z,24.03
2023-08-21T03:28:30.000Z,24.03
2023-08-21T03:29:30.000Z,24.02
2023-08-21T03:30:30.000Z,24.02
2023-08-21T03:31:31.000Z,24.02
2023-08-21T03:32:31.000Z,24.03
2023-08-21T03:33:30.000Z,24.02
2023-08-21T03:34:30.000Z,24.01
2023-08-21T03:35:30.000Z,24.01
2023-08-21T03:36:31.000Z,24.01
2023-08-21T03:37:30.000Z,24.01
2023-08-21T03:38:30.000Z,24.00
2023-08-21T03:39:30.000Z,23.99
2023-08-21T03:40:30.000Z,23.96
2023-08-21T03:41:31.000Z,23.95
2023-08-21T03:42:30.000Z,23.92
2023-08-21T03:43:31.000Z,23.92
2023-08-21T03:44:30.000Z,23.91
2023-08-21T03:45:31.000Z,23.89
2023-08-21T03:46:31.000Z,23.86
2023-08-21T03:47:30.000Z,23.88
2023-08-21T03:48:30.000Z,23.88
2023-08-21T03:49:40.000Z,23.85
2023-08-21T03:50:31.000Z,23.86
2023-08-21T03:51:31.000Z,23.86
2023-08-21T03:52:30.000Z,23.87
2023-08-21T03:53:30.000Z,23.83
2023-08-21T03:54:31.000Z,23.84
2023-08-21T03:55:30.000Z,23.83
2023-08-21T03:56:31.000Z,23.83
2023-08-21T03:57:30.000Z,23.85
2023-08-21T03:58:31.000Z,23.85
2023-08-21T03:59:31.000Z,23.85
2023-08-21T04:00:31.000Z,23.83
2023-08-21T04:01:30.000Z,23.84
2023-08-21T04:02:30.000Z,23.82
2023-08-21T04:03:31.000Z,23.73
2023-08-21T04:04:30.000Z,23.69
2023-08-21T04:05:30.000Z,23.67
2023-08-21T04:06:30.000Z,23.65
2023-08-21T04:07:30.000Z,23.63
2023-08-21T04:08:30.000Z,23.62
2023-08-21T04:09:30.000Z,23.61
2023-08-21T04:10:31.000Z,23.60
2023-08-21T04:11:31.000Z,23.60
2023-08-21T04:12:31.000Z,23.58
2023-08-21T04:13:31.000Z,23.56
2023-08-21T04:14:30.000Z,23.57
2023-08-21T04:15:31.000Z,23.57
2023-08-21T04:16:31.000Z,23.56
2023-08-21T04:17:31.000Z,23.57
2023-08-21T04:18:30.000Z,23.56
2023-08-21T04:19:33.000Z,23.54
2023-08-21T04:20:31.000Z,23.54
2023-08-21T04:21:31.000Z,23.51
2023-08-21T04:22:31.000Z,23.51
2023-08-21T04:23:30.000Z,23.51
2023-08-21T04:24:30.000Z,23.49
2023-08-21T04:25:31.000Z,23.48
2023-08-21T04:26:31.000Z,23.48
2023-08-21T04:27:31.000Z,23.48
2023-08-21T04:28:31.000Z,23.47
2023-08-21T04:29:31.000Z,23.48
2023-08-21T04:30:31.000Z,23.45
2023-08-21T04:31:31.000Z,23.47
2023-08-21T04:32:31.000Z,23.43
2023-08-21T04:33:32.000Z,23.43
2023-08-21T04:34:32.000Z,23.44
2023-08-21T04:35:36.000Z,23.43
2023-08-21T04:36:30.000Z,23.42
2023-08-21T04:37:31.000Z,23.42
2023-08-21T04:38:30.000Z,23.42
2023-08-21T04:39:31.000Z,23.39
2023-08-21T04:40:30.000Z,23.41
2023-08-21T04:41:30.000Z,23.41
2023-08-21T04:42:30.000Z,23.38
2023-08-21T04:43:30.000Z,23.41
2023-08-21T04:44:30.000Z,23.39
2023-08-21T04:45:30.000Z,23.41
2023-08-21T04:46:30.000Z,23.41
2023-08-21T04:47:31.000Z,23.40
2023-08-21T04:48:30.000Z,23.41
2023-08-21T04:49:30.000Z,23.42
2023-08-21T04:50:30.000Z,23.42
2023-08-21T04:51:31.000Z,23.42
2023-08-21T04:52:30.000Z,23.44
2023-08-21T04:53:31.000Z,23.42
2023-08-21T04:54:32.000Z,23.42
2023-08-21T04:55:30.000Z,23.41
2023-08-21T04:56:30.000Z,23.41
2023-08-21T04:57:30.000Z,23.40
2023-08-21T04:58:30.000Z,23.40
2023-08-21T04:59:30.000Z,23.39
2023-08-21T05:00:30.000Z,23.39
2023-08-21T05:01:30.000Z,23.38
2023-08-21T05:02:30.000Z,23.37
2023-08-21T05:03:31.000Z,23.37
2023-08-21T05:04:30.000Z,23.36
2023-08-21T05:05:30.000Z,23.38
2023-08-21T05:06:30.000Z,23.38
2023-08-21T05:07:30.000Z,23.39
2023-08-21T05:08:30.000Z,23.39
2023-08-21T05:09:31.000Z,23.41
2023-08-21T05:10:31.000Z,23.42
2023-08-21T05:11:31.000Z,23.43
2023-08-21T05:12:31.000Z,23.43
2023-08-21T05:13:31.000Z,23.43
2023-08-21T05:14:31.000Z,23.44
2023-08-21T05:15:31.000Z,23.44
2023-08-21T05:16:31.000Z,23.45
2023-08-21T05:17:31.000Z,23.47
2023-08-21T05:18:31.000Z,23.46
2023-08-21T05:19:31.000Z,23.46
2023-08-21T05:20:31.000Z,23.44
2023-08-21T05:21:31.000Z,23.44
2023-08-21T05:22:31.000Z,23.44
2023-08-21T05:23:31.000Z,23.45
2023-08-21T05:24:31.000Z,23.46
2023-08-21T05:25:32.000Z,23.45
2023-08-21T05:26:31.000Z,23.45
2023-08-21T05:27:31.000Z,23.45
2023-08-21T05:28:31.000Z,23.46
2023-08-21T05:29:31.000Z,23.45
2023-08-21T05:30:31.000Z,23.46
2023-08-21T05:31:31.000Z,23.47
2023-08-21T05:32:31.000Z,23.49
2023-08-21T05:33:31.000Z,23.51
2023-08-21T05:34:31.000Z,23.46
2023-08-21T05:35:34.000Z,23.44
2023-08-21T05:36:31.000Z,23.28
2023-08-21T05:37:31.000Z,23.34
2023-08-21T05:38:32.000Z,23.33
2023-08-21T05:39:31.000Z,23.31
2023-08-21T05:40:31.000Z,23.34
2023-08-21T05:41:31.000Z,23.35
2023-08-21T05:42:30.000Z,23.38
2023-08-21T05:43:30.000Z,23.40
2023-08-21T05:44:30.000Z,23.41
2023-08-21T05:45:31.000Z,23.43
2023-08-21T05:46:30.000Z,23.42
2023-08-21T05:47:31.000Z,23.44
2023-08-21T05:48:30.000Z,23.37
2023-08-21T05:49:30.000Z,23.37
2023-08-21T05:50:30.000Z,23.39
2023-08-21T05:51:30.000Z,23.37
2023-08-21T05:52:30.000Z,23.37
2023-08-21T05:53:30.000Z,23.32
2023-08-21T05:54:30.000Z,23.28
2023-08-21T05:55:30.000Z,23.20
2023-08-21T05:56:30.000Z,23.24
2023-08-21T05:57:30.000Z,23.14
2023-08-21T05:58:32.000Z,23.15
2023-08-21T05:59:31.000Z,23.16
2023-08-21T06:00:33.000Z,23.20
2023-08-21T06:01:30.000Z,23.23
2023-08-21T06:02:30.000Z,23.24
2023-08-21T06:03:30.000Z,23.26
2023-08-21T06:04:30.000Z,23.26
2023-08-21T06:05:30.000Z,23.26
2023-08-21T06:06:30.000Z,23.28
2023-08-21T06:07:32.000Z,23.21
2023-08-21T06:08:31.000Z,23.21
2023-08-21T06:09:33.000Z,23.22
2023-08-21T06:10:31.000Z,23.23
2023-08-21T06:11:30.000Z,23.15
2023-08-21T06:12:30.000Z,23.13
2023-08-21T06:13:30.000Z,23.19
2023-08-21T06:14:30.000Z,23.22
2023-08-21T06:15:30.000Z,23.21
2023-08-21T06:16:30.000Z,23.16
2023-08-21T06:17:30.000Z,23.19
2023-08-21T06:18:30.000Z,23.18
2023-08-21T06:19:30.000Z,23.24
2023-08-21T06:20:30.000Z,23.24
2023-08-21T06:21:30.000Z,23.24
2023-08-21T06:22:30.000Z,23.24
2023-08-21T06:23:30.000Z,23.28
2023-08-21T06:24:30.000Z,23.31
2023-08-21T06:25:31.000Z,23.36
2023-08-21T06:26:30.000Z,23.38
2023-08-21T06:27:30.000Z,23.40
2023-08-21T06:28:30.000Z,23.44
2023-08-21T06:29:30.000Z,23.47
2023-08-21T06:30:30.000Z,23.48
2023-08-21T06:31:30.000Z,23.46
2023-08-21T06:32:30.000Z,23.49
2023-08-21T06:33:30.000Z,23.50
2023-08-21T06:34:30.000Z,23.54
2023-08-21T06:35:30.000Z,23.58
2023-08-21T06:36:30.000Z,23.60
2023-08-21T06:37:30.000Z,23.64
2023-08-21T06:38:30.000Z,23.66
2023-08-21T06:39:30.000Z,23.70
2023-08-21T06:40:30.000Z,23.71
2023-08-21T06:41:30.000Z,23.75
2023-08-21T06:42:31.000Z,23.79
2023-08-21T06:43:31.000Z,23.81
2023-08-21T06:44:31.000Z,23.84
2023-08-21T06:45:32.000Z,23.79
2023-08-21T06:46:30.000Z,23.80
2023-08-21T06:47:31.000Z,23.81
2023-08-21T06:48:31.000Z,23.80
2023-08-21T06:49:30.000Z,23.85
2023-08-21T06:50:30.000Z,23.88
2023-08-21T06:51:31.000Z,23.93
2023-08-21T06:52:30.000Z,23.91
2023-08-21T06:53:31.000Z,23.90
2023-08-21T06:54:31.000Z,23.91
2023-08-21T06:55:31.000Z,23.91
2023-08-21T06:56:32.000Z,23.85
2023-08-21T06:57:31.000Z,23.92
2023-08-21T06:58:31.000Z,23.94
2023-08-21T06:59:32.000Z,23.98
2023-08-21T07:00:30.000Z,24.00
2023-08-21T07:01:31.000Z,24.05
2023-08-21T07:02:31.000Z,24.07
2023-08-21T07:03:30.000Z,24.07
2023-08-21T07:04:33.000Z,24.13
2023-08-21T07:05:31.000Z,24.19
2023-08-21T07:06:31.000Z,24.24
2023-08-21T07:07:30.000Z,24.22
2023-08-21T07:08:31.000Z,24.23
2023-08-21T07:09:31.000Z,24.27
2023-08-21T07:10:37.000Z,24.32
2023-08-21T07:11:30.000Z,24.37
2023-08-21T07:12:31.000Z,24.40
2023-08-21T07:13:31.000Z,24.41
2023-08-21T07:14:31.000Z,24.44
2023-08-21T07:15:31.000Z,24.48
2023-08-21T07:16:30.000Z,24.46
2023-08-21T07:17:31.000Z,24.41
2023-08-21T07:18:32.000Z,24.41
2023-08-21T07:19:31.000Z,24.45
2023-08-21T07:20:31.000Z,24.48
2023-08-21T07:21:31.000Z,24.52
2023-08-21T07:22:32.000Z,24.57
2023-08-21T07:23:32.000Z,24.56
2023-08-21T07:24:31.000Z,24.59
2023-08-21T07:25:31.000Z,24.61
2023-08-21T07:26:31.000Z,24.63
2023-08-21T07:27:31.000Z,24.66
2023-08-21T07:28:30.000Z,24.67
2023-08-21T07:29:30.000Z,24.68
2023-08-21T07:30:31.000Z,24.68
2023-08-21T07:31:32.000Z,24.73
2023-08-21T07:32:30.000Z,24.75
2023-08-21T07:33:30.000Z,24.80
2023-08-21T07:34:31.000Z,24.83
2023-08-21T07:35:32.000Z,24.81
2023-08-21T07:36:32.000Z,24.85
2023-08-21T07:37:31.000Z,24.86
2023-08-21T07:38:31.000Z,24.85
2023-08-21T07:39:31.000Z,24.83
2023-08-21T07:40:30.000Z,24.84
2023-08-21T07:41:31.000Z,24.86
2023-08-21T07:42:30.000Z,24.90
2023-08-21T07:43:31.000Z,24.93
2023-08-21T07:44:31.000Z,24.98
2023-08-21T07:45:30.000Z,25.00
2023-08-21T07:46:31.000Z,24.99
2023-08-21T07:47:31.000Z,24.98
2023-08-21T07:48:31.000Z,25.00
2023-08-21T07:49:31.000Z,25.07
2023-08-21T07:50:30.000Z,25.06
2023-08-21T07:51:31.000Z,25.11
2023-08-21T07:52:30.000Z,25.12
2023-08-21T07:53:31.000Z,25.16
2023-08-21T07:54:31.000Z,25.17
2023-08-21T07:55:30.000Z,25.18
2023-08-21T07:56:31.000Z,25.21
2023-08-21T07:57:31.000Z,25.24
2023-08-21T07:58:31.000Z,25.30
2023-08-21T07:59:31.000Z,25.37
2023-08-21T08:00:31.000Z,25.42
2023-08-21T08:01:30.000Z,25.41
2023-08-21T08:02:30.000Z,25.43
2023-08-21T08:03:31.000Z,25.50
2023-08-21T08:04:30.000Z,25.52
2023-08-21T08:05:31.000Z,25.59
2023-08-21T08:06:31.000Z,25.60
2023-08-21T08:07:30.000Z,25.64
2023-08-21T08:08:31.000Z,25.70
2023-08-21T08:09:30.000Z,25.72
2023-08-21T08:10:31.000Z,25.76
2023-08-21T08:11:31.000Z,25.81
2023-08-21T08:12:33.000Z,25.85
2023-08-21T08:13:31.000Z,25.91
2023-08-21T08:14:31.000Z,25.95
2023-08-21T08:15:31.000Z,25.97
2023-08-21T08:16:30.000Z,25.99
2023-08-21T08:17:30.000Z,25.96
2023-08-21T08:18:30.000Z,25.93
2023-08-21T08:19:30.000Z,25.97
2023-08-21T08:20:31.000Z,25.99
2023-08-21T08:21:31.000Z,26.02
2023-08-21T08:22:30.000Z,26.09
2023-08-21T08:23:30.000Z,26.09
2023-08-21T08:24:31.000Z,26.11
2023-08-21T08:25:31.000Z,26.13
2023-08-21T08:26:31.000Z,26.15
2023-08-21T08:27:30.000Z,26.18
2023-08-21T08:28:31.000Z,26.20
2023-08-21T08:29:30.000Z,26.27
2023-08-21T08:30:31.000Z,26.24
2023-08-21T08:31:31.000Z,26.30
2023-08-21T08:32:31.000Z,26.31
2023-08-21T08:33:31.000Z,26.37
2023-08-21T08:34:30.000Z,26.41
2023-08-21T08:35:31.000Z,26.39
2023-08-21T08:36:30.000Z,26.40
2023-08-21T08:37:31.000Z,26.42
2023-08-21T08:38:30.000Z,26.49
2023-08-21T08:39:31.000Z,26.48
2023-08-21T08:40:31.000Z,26.52
2023-08-21T08:41:42.000Z,26.59
2023-08-21T08:42:30.000Z,26.61
2023-08-21T08:43:32.000Z,26.60
2023-08-21T08:44:34.000Z,26.65
2023-08-21T08:45:30.000Z,26.66
2023-08-21T08:46:30.000Z,26.75
2023-08-21T08:47:34.000Z,26.75
2023-08-21T08:48:30.000Z,26.77
2023-08-21T08:49:30.000Z,26.75
2023-08-21T08:50:31.000Z,26.79
2023-08-21T08:51:33.000Z,26.84
2023-08-21T08:52:34.000Z,26.83
2023-08-21T08:53:30.000Z,26.89
2023-08-21T08:54:30.000Z,26.99
2023-08-21T08:55:30.000Z,26.97
2023-08-21T08:56:30.000Z,27.00
2023-08-21T08:57:30.000Z,27.01
2023-08-21T08:58:30.000Z,27.04
2023-08-21T08:59:31.000Z,27.10
2023-08-21T09:00:30.000Z,27.15
2023-08-21T09:01:30.000Z,27.21
2023-08-21T09:02:30.000Z,27.24
2023-08-21T09:03:30.000Z,27.27
2023-08-21T09:04:30.000Z,27.34
2023-08-21T09:05:31.000Z,27.33
2023-08-21T09:06:31.000Z,27.32
2023-08-21T09:07:30.000Z,27.33
2023-08-21T09:08:30.000Z,27.38
2023-08-21T09:09:39.000Z,27.41
2023-08-21T09:10:30.000Z,27.39
2023-08-21T09:11:31.000Z,27.42
2023-08-21T09:12:32.000Z,27.43
2023-08-21T09:13:30.000Z,27.45
2023-08-21T09:14:30.000Z,27.48
2023-08-21T09:15:31.000Z,27.51
2023-08-21T09:16:30.000Z,27.51
2023-08-21T09:17:32.000Z,27.52
2023-08-21T09:18:33.000Z,27.48
2023-08-21T09:19:30.000Z,27.52
2023-08-21T09:20:34.000Z,27.52
2023-08-21T09:21:30.000Z,27.53
2023-08-21T09:22:30.000Z,27.57
2023-08-21T09:23:31.000Z,27.58
2023-08-21T09:24:30.000Z,27.66
2023-08-21T09:25:33.000Z,27.68
2023-08-21T09:26:31.000Z,27.72
2023-08-21T09:27:30.000Z,27.72
2023-08-21T09:28:30.000Z,27.82
2023-08-21T09:29:40.000Z,27.84
2023-08-21T09:30:43.000Z,27.89
2023-08-21T09:31:32.000Z,27.91
2023-08-21T09:32:50.000Z,27.96
2023-08-21T09:33:30.000Z,28.03
2023-08-21T09:34:34.000Z,28.06
2023-08-21T09:35:32.000Z,28.12
2023-08-21T09:36:31.000Z,28.15
2023-08-21T09:37:30.000Z,28.18
2023-08-21T09:38:30.000Z,28.21
2023-08-21T09:39:35.000Z,28.25
2023-08-21T09:40:30.000Z,28.34
2023-08-21T09:41:30.000Z,28.40
2023-08-21T09:42:30.000Z,28.43
2023-08-21T09:43:30.000Z,28.53
2023-08-21T09:44:39.000Z,28.59
2023-08-21T09:45:30.000Z,28.65
2023-08-21T09:46:29.000Z,28.71
2023-08-21T09:47:31.000Z,28.76
2023-08-21T09:48:30.000Z,28.82
2023-08-21T09:49:32.000Z,28.89
2023-08-21T09:50:30.000Z,28.91
2023-08-21T09:51:30.000Z,28.94
2023-08-21T09:52:30.000Z,28.98
2023-08-21T09:53:30.000Z,28.99
2023-08-21T09:54:34.000Z,28.96
2023-08-21T09:55:31.000Z,28.95
2023-08-21T09:56:31.000Z,28.90
2023-08-21T09:57:31.000Z,28.89
2023-08-21T09:58:30.000Z,28.85
2023-08-21T09:59:30.000Z,28.86
2023-08-21T10:00:31.000Z,28.90
2023-08-21T10:01:32.000Z,28.92
2023-08-21T10:02:30.000Z,28.97
2023-08-21T10:03:31.000Z,28.96
2023-08-21T10:04:31.000Z,28.94
2023-08-21T10:05:31.000Z,28.93
2023-08-21T10:06:30.000Z,28.96
2023-08-21T10:07:30.000Z,29.00
2023-08-21T10:08:32.000Z,29.02
2023-08-21T10:09:30.000Z,29.05
2023-08-21T10:10:32.000Z,29.06
2023-08-21T10:11:30.000Z,29.12
2023-08-21T10:12:30.000Z,29.14
2023-08-21T10:13:32.000Z,29.18
2023-08-21T10:14:32.000Z,29.24
2023-08-21T10:15:31.000Z,29.29
2023-08-21T10:16:30.000Z,29.31
2023-08-21T10:17:30.000Z,29.40
2023-08-21T10:18:33.000Z,29.44
2023-08-21T10:19:31.000Z,29.50
2023-08-21T10:20:30.000Z,29.51
2023-08-21T10:21:34.000Z,29.47
2023-08-21T10:22:40.000Z,29.49
2023-08-21T10:23:30.000Z,29.48
2023-08-21T10:24:35.000Z,29.49
2023-08-21T10:25:30.000Z,29.51
2023-08-21T10:26:30.000Z,29.56
2023-08-21T10:27:30.000Z,29.60
2023-08-21T10:28:40.000Z,29.66
2023-08-21T10:29:33.000Z,29.69
2023-08-21T10:30:30.000Z,29.74
2023-08-21T10:31:37.000Z,29.78
2023-08-21T10:32:30.000Z,29.83
2023-08-21T10:33:40.000Z,29.84
2023-08-21T10:34:35.000Z,29.85
2023-08-21T10:35:31.000Z,29.87
2023-08-21T10:36:40.000Z,29.91
2023-08-21T10:37:30.000Z,29.89
2023-08-21T10:38:30.000Z,29.93
2023-08-21T10:39:32.000Z,29.93
2023-08-21T10:40:30.000Z,29.95
2023-08-21T10:41:30.000Z,29.99
2023-08-21T10:42:38.000Z,30.01
2023-08-21T10:43:42.000Z,30.04
2023-08-21T10:44:46.000Z,30.06
2023-08-21T10:45:30.000Z,30.11
2023-08-21T10:46:50.000Z,30.12
2023-08-21T10:47:31.000Z,30.17
2023-08-21T10:48:30.000Z,30.20
2023-08-21T10:49:30.000Z,30.24
2023-08-21T10:50:30.000Z,30.28
2023-08-21T10:51:30.000Z,30.29
2023-08-21T10:52:41.000Z,30.30
2023-08-21T10:53:31.000Z,30.32
2023-08-21T10:54:45.000Z,30.36
2023-08-21T10:55:30.000Z,30.37
2023-08-21T10:56:31.000Z,30.38
2023-08-21T10:57:32.000Z,30.44
2023-08-21T10:58:44.000Z,30.44
2023-08-21T10:59:30.000Z,30.47
2023-08-21T11:00:30.000Z,30.49
2023-08-21T11:01:40.000Z,30.54
2023-08-21T11:02:32.000Z,30.56
2023-08-21T11:03:30.000Z,30.61
2023-08-21T11:04:39.000Z,30.61
2023-08-21T11:05:30.000Z,30.61
2023-08-21T11:06:32.000Z,30.66
2023-08-21T11:07:36.000Z,30.68
2023-08-21T11:08:35.000Z,30.74
2023-08-21T11:09:30.000Z,30.76
2023-08-21T11:10:31.000Z,30.78
2023-08-21T11:11:30.000Z,30.80
2023-08-21T11:12:30.000Z,30.82
2023-08-21T11:13:31.000Z,30.83
2023-08-21T11:14:30.000Z,30.86
2023-08-21T11:15:30.000Z,30.89
2023-08-21T11:16:30.000Z,30.93
2023-08-21T11:17:30.000Z,30.96
2023-08-21T11:18:35.000Z,30.95
2023-08-21T11:19:34.000Z,31.01
2023-08-21T11:20:34.000Z,31.03
2023-08-21T11:21:30.000Z,31.07
2023-08-21T11:22:31.000Z,31.04
2023-08-21T11:23:37.000Z,31.16
2023-08-21T11:24:41.000Z,31.13
2023-08-21T11:25:31.000Z,31.10
2023-08-21T11:26:30.000Z,31.14
2023-08-21T11:27:30.000Z,31.14
2023-08-21T11:28:31.000Z,31.18
2023-08-21T11:29:37.000Z,31.21
2023-08-21T11:30:31.000Z,31.21
2023-08-21T11:31:30.000Z,31.25
2023-08-21T11:32:30.000Z,31.28
2023-08-21T11:33:31.000Z,31.34
2023-08-21T11:34:32.000Z,31.37
2023-08-21T11:35:31.000Z,31.39
2023-08-21T11:36:30.000Z,31.41
2023-08-21T11:37:30.000Z,31.45
2023-08-21T11:38:30.000Z,31.47
2023-08-21T11:39:42.000Z,31.51
2023-08-21T11:40:34.000Z,31.52
2023-08-21T11:41:30.000Z,31.55
2023-08-21T11:42:32.000Z,31.57
2023-08-21T11:43:36.000Z,31.59
2023-08-21T11:44:30.000Z,31.57
2023-08-21T11:45:31.000Z,31.63
2023-08-21T11:46:30.000Z,31.64
2023-08-21T11:47:33.000Z,31.65
2023-08-21T11:48:30.000Z,31.70
2023-08-21T11:49:30.000Z,31.72
2023-08-21T11:50:30.000Z,31.72
2023-08-21T11:51:38.000Z,31.73
2023-08-21T11:52:32.000Z,31.71
2023-08-21T11:53:41.000Z,31.76
2023-08-21T11:54:34.000Z,31.74
2023-08-21T11:55:31.000Z,31.81
2023-08-21T11:56:31.000Z,31.82
2023-08-21T11:57:30.000Z,31.83
2023-08-21T11:58:30.000Z,31.89
2023-08-21T11:59:30.000Z,31.94
2023-08-21T12:00:30.000Z,31.95
2023-08-21T12:01:32.000Z,31.96
2023-08-21T12:02:30.000Z,31.99
2023-08-21T12:03:36.000Z,31.96
2023-08-21T12:04:30.000Z,31.94
2023-08-21T12:05:30.000Z,31.96
2023-08-21T12:06:32.000Z,31.97
2023-08-21T12:07:31.000Z,32.00
2023-08-21T12:08:30.000Z,32.05
2023-08-21T12:09:31.000Z,32.04
2023-08-21T12:10:30.000Z,32.08
2023-08-21T12:11:30.000Z,32.10
2023-08-21T12:12:30.000Z,32.14
2023-08-21T12:13:31.000Z,32.20
2023-08-21T12:14:30.000Z,32.24
2023-08-21T12:15:30.000Z,32.31
2023-08-21T12:16:30.000Z,32.34
2023-08-21T12:17:30.000Z,32.31
2023-08-21T12:18:30.000Z,32.34
2023-08-21T12:19:30.000Z,32.32
2023-08-21T12:20:29.000Z,32.38
2023-08-21T12:21:33.000Z,32.41
2023-08-21T12:22:29.000Z,32.42
2023-08-21T12:23:29.000Z,32.46
2023-08-21T12:24:30.000Z,32.49
2023-08-21T12:25:31.000Z,32.55
2023-08-21T12:26:29.000Z,32.59
2023-08-21T12:27:30.000Z,32.61
2023-08-21T12:28:29.000Z,32.65
2023-08-21T12:29:30.000Z,32.69
2023-08-21T12:30:29.000Z,32.74
2023-08-21T12:31:30.000Z,32.95
2023-08-21T12:32:29.000Z,32.85
2023-08-21T12:33:29.000Z,32.89
2023-08-21T12:34:29.000Z,32.64
2023-08-21T12:35:29.000Z,32.76
2023-08-21T12:36:30.000Z,32.59
2023-08-21T12:37:29.000Z,32.63
2023-08-21T12:38:29.000Z,32.62
2023-08-21T12:39:29.000Z,32.56
2023-08-21T12:40:30.000Z,32.58
2023-08-21T12:41:30.000Z,32.61
2023-08-21T12:42:29.000Z,32.70
2023-08-21T12:43:30.000Z,32.73
2023-08-21T12:44:30.000Z,32.79
2023-08-21T12:45:29.000Z,32.83
2023-08-21T12:46:29.000Z,32.85
2023-08-21T12:47:29.000Z,32.90
2023-08-21T12:48:30.000Z,32.93
2023-08-21T12:49:29.000Z,32.98
2023-08-21T12:50:30.000Z,33.04
2023-08-21T12:51:29.000Z,32.97
2023-08-21T12:52:30.000Z,32.99